createdAt,value
2022-12-19T00:00:49.505Z,-1.26
2022-12-19T00:03:54.545Z,-1.18
2022-12-19T00:06:59.667Z,-1.16
2022-12-19T00:10:01.133Z,-1.21
2022-12-19T00:13:02.516Z,-1.29
2022-12-19T00:16:06.524Z,-1.26
2022-12-19T00:19:10.045Z,-1.25
2022-12-19T00:22:11.496Z,-1.16
2022-12-19T00:25:12.907Z,-1.19
2022-12-19T00:28:15.827Z,-1.18
2022-12-19T00:31:21.401Z,-1.20
2022-12-19T00:34:22.910Z,-1.18
2022-12-19T00:37:24.348Z,-1.13
2022-12-19T00:40:25.772Z,-1.07
2022-12-19T00:43:27.197Z,-1.12
2022-12-19T00:46:31.555Z,-1.10
2022-12-19T00:49:32.943Z,-1.09
2022-12-19T00:52:35.259Z,-1.08
2022-12-19T00:55:38.401Z,-0.98
2022-12-19T00:58:46.437Z,-1.07
2022-12-19T01:01:48.525Z,-1.07
2022-12-19T01:04:50.349Z,-1.07
2022-12-19T01:07:51.743Z,-1.05
2022-12-19T01:10:53.974Z,-1.12
2022-12-19T01:13:55.364Z,-1.06
2022-12-19T01:16:56.836Z,-1.08
2022-12-19T01:19:59.845Z,-1.07
2022-12-19T01:23:01.316Z,-1.09
2022-12-19T01:26:02.806Z,-1.09
2022-12-19T01:29:05.185Z,-1.08
2022-12-19T01:32:06.627Z,-1.03
2022-12-19T01:35:16.641Z,-1.01
2022-12-19T01:38:23.441Z,-1.06
2022-12-19T01:41:25.210Z,-1.02
2022-12-19T01:44:27.683Z,-0.88
2022-12-19T01:47:29.701Z,-0.93
2022-12-19T01:51:00.850Z,-0.96
2022-12-19T01:54:07.533Z,-0.92
2022-12-19T01:57:13.871Z,-0.93
2022-12-19T02:00:15.762Z,-0.91
2022-12-19T02:03:33.277Z,-0.87
2022-12-19T02:06:35.335Z,-0.91
2022-12-19T02:09:37.256Z,-0.81
2022-12-19T02:12:43.110Z,-0.68
2022-12-19T02:16:11.825Z,-0.74
2022-12-19T02:19:34.268Z,-0.68
2022-12-19T02:23:03.659Z,-0.68
2022-12-19T02:26:39.447Z,-0.72
2022-12-19T02:30:18.916Z,-0.75
2022-12-19T02:33:43.405Z,-0.60
2022-12-19T02:36:52.696Z,-0.68
2022-12-19T02:40:05.335Z,-0.69
2022-12-19T02:43:09.950Z,-0.65
2022-12-19T02:46:12.479Z,-0.62
2022-12-19T02:49:17.831Z,-0.59
2022-12-19T02:52:26.213Z,-0.51
2022-12-19T02:55:28.755Z,-0.50
2022-12-19T02:58:52.612Z,-0.51
2022-12-19T03:02:04.039Z,-0.32
2022-12-19T03:05:27.086Z,-0.43
2022-12-19T03:09:00.796Z,-0.49
2022-12-19T03:12:12.789Z,-0.38
2022-12-19T03:15:18.345Z,-0.35
2022-12-19T03:18:20.448Z,-0.30
2022-12-19T03:21:37.599Z,-0.25
2022-12-19T03:24:39.037Z,-0.23
2022-12-19T03:27:41.085Z,-0.34
2022-12-19T03:30:45.466Z,-0.23
2022-12-19T03:33:52.142Z,-0.25
2022-12-19T03:36:59.014Z,-0.18
2022-12-19T03:40:06.015Z,-0.15
2022-12-19T03:43:11.117Z,-0.20
2022-12-19T03:46:22.201Z,-0.27
2022-12-19T03:49:23.893Z,-0.09
2022-12-19T03:52:34.471Z,-0.18
2022-12-19T03:55:47.476Z,-0.18
2022-12-19T03:58:54.913Z,-0.09
2022-12-19T04:01:57.460Z,-0.12
2022-12-19T04:05:06.120Z,-0.16
2022-12-19T04:08:11.561Z,-0.14
2022-12-19T04:11:20.193Z,-0.07
2022-12-19T04:14:30.687Z,-0.05
2022-12-19T04:17:42.803Z,-0.02
2022-12-19T04:20:58.526Z,0.01
2022-12-19T04:24:10.699Z,0.06
2022-12-19T04:27:14.069Z,0.15
2022-12-19T04:30:18.143Z,0.12
2022-12-19T04:33:20.102Z,0.07
2022-12-19T04:36:21.681Z,0.07
2022-12-19T04:39:23.269Z,0.13
2022-12-19T04:42:26.319Z,0.13
2022-12-19T04:45:27.713Z,0.18
2022-12-19T04:48:29.167Z,0.11
2022-12-19T04:51:30.713Z,0.09
2022-12-19T04:54:32.931Z,0.02
2022-12-19T04:57:34.316Z,0.00
2022-12-19T05:00:35.802Z,0.13
2022-12-19T05:03:37.288Z,0.15
2022-12-19T05:06:38.740Z,0.23
2022-12-19T05:09:40.217Z,0.18
2022-12-19T05:12:41.609Z,0.33
2022-12-19T05:15:43.006Z,0.19
2022-12-19T05:18:46.470Z,0.11
2022-12-19T05:21:47.887Z,0.16
2022-12-19T05:24:49.285Z,0.15
2022-12-19T05:27:50.679Z,0.21
2022-12-19T05:30:52.671Z,0.09
2022-12-19T05:33:54.218Z,0.06
2022-12-19T05:36:55.662Z,0.05
2022-12-19T05:39:57.112Z,0.10
2022-12-19T05:42:58.735Z,0.13
2022-12-19T05:46:00.151Z,0.16
2022-12-19T05:49:01.661Z,0.16
2022-12-19T05:52:03.118Z,0.20
2022-12-19T05:55:06.067Z,0.32
2022-12-19T05:58:07.456Z,0.27
2022-12-19T06:01:12.209Z,0.27
2022-12-19T06:04:13.696Z,0.30
2022-12-19T06:07:20.626Z,0.34
2022-12-19T06:10:22.477Z,0.36
2022-12-19T06:13:25.204Z,0.36
2022-12-19T06:16:26.754Z,0.33
2022-12-19T06:19:28.245Z,0.39
2022-12-19T06:22:29.700Z,0.49
2022-12-19T06:25:31.097Z,0.60
2022-12-19T06:28:34.020Z,0.56
2022-12-19T06:31:35.562Z,0.57
2022-12-19T06:35:03.306Z,0.61
2022-12-19T06:38:01.020Z,0.68
2022-12-19T06:41:21.890Z,0.64
2022-12-19T06:44:23.406Z,0.81
2022-12-19T06:47:25.362Z,1.01
2022-12-19T06:50:26.747Z,0.81
2022-12-19T06:53:28.385Z,0.66
2022-12-19T06:56:36.003Z,0.60
2022-12-19T06:59:37.683Z,0.62
2022-12-19T07:02:42.710Z,0.67
2022-12-19T07:05:44.190Z,0.61
2022-12-19T07:08:45.583Z,0.69
2022-12-19T07:11:47.013Z,0.66
2022-12-19T07:14:53.121Z,0.75
2022-12-19T07:17:56.077Z,0.70
2022-12-19T07:20:57.688Z,0.74
2022-12-19T07:24:00.472Z,0.71
2022-12-19T07:27:02.529Z,0.71
2022-12-19T07:30:06.016Z,0.80
2022-12-19T07:33:10.965Z,0.82
2022-12-19T07:36:12.948Z,0.88
2022-12-19T07:39:14.404Z,0.89
2022-12-19T07:42:15.834Z,1.05
2022-12-19T07:45:17.410Z,1.08
2022-12-19T07:48:18.873Z,1.38
2022-12-19T07:51:20.301Z,1.29
2022-12-19T07:54:21.906Z,1.28
2022-12-19T07:57:23.299Z,1.14
2022-12-19T08:00:24.837Z,1.15
2022-12-19T08:03:26.821Z,1.24
2022-12-19T08:06:28.317Z,1.39
2022-12-19T08:09:30.341Z,1.37
2022-12-19T08:12:33.754Z,1.49
2022-12-19T08:15:35.618Z,1.39
2022-12-19T08:18:37.618Z,1.21
2022-12-19T08:21:39.014Z,1.20
2022-12-19T08:24:40.406Z,1.20
2022-12-19T08:27:42.854Z,1.34
2022-12-19T08:30:44.279Z,1.43
2022-12-19T08:33:47.317Z,1.38
2022-12-19T08:36:48.708Z,1.41
2022-12-19T08:39:50.121Z,1.51
2022-12-19T08:42:51.540Z,1.57
2022-12-19T08:45:53.676Z,1.66
2022-12-19T08:48:55.320Z,1.81
2022-12-19T08:51:56.841Z,1.78
2022-12-19T08:54:58.348Z,1.80
2022-12-19T08:57:59.738Z,1.79
2022-12-19T09:01:06.255Z,1.84
2022-12-19T09:05:17.252Z,1.87
2022-12-19T09:07:30.725Z,1.82
2022-12-19T09:10:32.249Z,1.94
2022-12-19T09:13:34.526Z,1.81
2022-12-19T09:16:35.990Z,2.00
2022-12-19T09:19:37.601Z,1.95
2022-12-19T09:22:39.978Z,1.95
2022-12-19T09:25:41.389Z,1.89
2022-12-19T09:28:43.135Z,1.97
2022-12-19T09:31:44.539Z,1.91
2022-12-19T09:34:46.023Z,1.99
2022-12-19T09:37:47.415Z,2.00
2022-12-19T09:40:58.013Z,2.06
2022-12-19T09:44:33.287Z,2.17
2022-12-19T09:47:38.398Z,2.12
2022-12-19T09:51:09.961Z,2.17
2022-12-19T09:54:24.407Z,2.27
2022-12-19T09:57:46.974Z,2.37
2022-12-19T10:01:00.362Z,2.38
2022-12-19T10:04:18.255Z,2.43
2022-12-19T10:07:43.956Z,2.56
2022-12-19T10:12:38.588Z,2.49
2022-12-19T10:14:17.851Z,2.57
2022-12-19T10:17:47.084Z,2.69
2022-12-19T10:21:04.238Z,2.76
2022-12-19T10:24:17.796Z,2.77
2022-12-19T10:27:37.888Z,3.00
2022-12-19T10:31:22.718Z,2.88
2022-12-19T10:34:32.582Z,2.96
2022-12-19T10:38:03.673Z,3.00
2022-12-19T10:41:16.322Z,2.90
2022-12-19T10:44:19.054Z,3.03
2022-12-19T10:47:20.617Z,3.11
2022-12-19T10:50:29.521Z,3.21
2022-12-19T10:53:32.086Z,3.22
2022-12-19T10:56:37.701Z,3.26
2022-12-19T10:59:39.571Z,3.29
2022-12-19T11:02:51.661Z,3.27
2022-12-19T11:05:57.738Z,3.35
2022-12-19T11:09:27.339Z,3.45
2022-12-19T11:16:19.013Z,3.53
2022-12-19T11:20:49.487Z,3.63
2022-12-19T11:29:26.833Z,3.74
2022-12-19T11:30:05.572Z,3.77
2022-12-19T11:30:48.667Z,3.86
2022-12-19T11:33:18.641Z,3.91
2022-12-19T11:36:36.179Z,3.84
2022-12-19T11:40:04.143Z,3.96
2022-12-19T11:43:43.918Z,4.06
2022-12-19T11:46:59.049Z,3.96
2022-12-19T11:50:11.178Z,3.98
2022-12-19T11:53:26.497Z,3.93
2022-12-19T11:56:29.107Z,3.92
2022-12-19T11:59:34.501Z,3.98
2022-12-19T12:03:04.000Z,4.00
2022-12-19T12:06:13.056Z,3.97
2022-12-19T12:14:35.565Z,4.00
2022-12-19T12:22:50.852Z,4.03
2022-12-19T12:29:58.666Z,4.07
2022-12-19T12:31:21.634Z,4.25
2022-12-19T12:31:43.763Z,4.21
2022-12-19T12:31:49.680Z,4.21
2022-12-19T12:35:38.189Z,4.29
2022-12-19T12:39:04.816Z,4.41
2022-12-19T12:42:37.348Z,4.50
2022-12-19T12:45:41.349Z,4.53
2022-12-19T12:48:51.496Z,4.45
2022-12-19T12:51:53.412Z,4.45
2022-12-19T12:54:55.785Z,4.46
2022-12-19T12:57:57.875Z,4.39
2022-12-19T13:01:36.147Z,4.41
2022-12-19T13:04:59.074Z,4.32
2022-12-19T13:08:00.492Z,4.23
2022-12-19T13:11:44.800Z,4.18
2022-12-19T13:14:51.591Z,4.20
2022-12-19T13:17:52.932Z,4.15
2022-12-19T13:20:54.355Z,4.22
2022-12-19T13:24:16.002Z,4.19
2022-12-19T13:27:20.740Z,4.16
2022-12-19T13:30:22.258Z,4.14
2022-12-19T13:33:23.686Z,4.12
2022-12-19T13:39:49.009Z,4.24
2022-12-19T13:40:32.270Z,4.24
2022-12-19T13:43:48.044Z,4.19
2022-12-19T13:46:49.900Z,4.12
2022-12-19T13:49:52.256Z,4.19
2022-12-19T13:52:53.776Z,4.14
2022-12-19T13:56:00.256Z,4.21
2022-12-19T13:59:04.172Z,4.22
2022-12-19T14:02:14.518Z,4.19
2022-12-19T14:06:16.781Z,4.20
2022-12-19T14:11:25.725Z,4.17
2022-12-19T14:13:48.157Z,4.13
2022-12-19T14:16:17.100Z,4.11
2022-12-19T14:19:27.690Z,4.16
2022-12-19T14:22:29.135Z,4.07
2022-12-19T14:28:25.154Z,4.07
2022-12-19T14:30:19.332Z,4.18
2022-12-19T14:33:45.559Z,4.07
2022-12-19T14:36:25.579Z,3.97
2022-12-19T14:39:35.614Z,3.98
2022-12-19T14:43:57.706Z,4.00
2022-12-19T14:52:34.220Z,3.94
2022-12-19T14:54:00.768Z,3.96
2022-12-19T14:54:30.697Z,3.92
2022-12-19T14:56:58.008Z,3.86
2022-12-19T14:59:55.860Z,3.92
2022-12-19T15:03:02.186Z,3.88
2022-12-19T15:07:07.806Z,3.84
2022-12-19T15:11:06.813Z,3.85
2022-12-19T15:14:54.259Z,3.86
2022-12-19T15:17:01.062Z,3.91
2022-12-19T15:20:02.455Z,3.94
2022-12-19T15:23:04.612Z,3.86
2022-12-19T15:26:15.722Z,3.77
2022-12-19T15:29:21.852Z,3.76
2022-12-19T15:32:23.756Z,3.71
2022-12-19T15:35:25.154Z,3.70
2022-12-19T15:38:26.548Z,3.81
2022-12-19T15:41:28.046Z,3.92
2022-12-19T15:44:32.579Z,3.93
2022-12-19T15:47:36.876Z,3.96
2022-12-19T15:50:38.274Z,3.96
2022-12-19T15:53:41.480Z,4.02
2022-12-19T15:56:51.240Z,4.16
2022-12-19T15:59:53.412Z,4.27
2022-12-19T16:06:17.376Z,4.19
2022-12-19T16:09:22.098Z,4.28
2022-12-19T16:12:45.269Z,4.30
2022-12-19T16:15:47.009Z,4.31
2022-12-19T16:18:49.009Z,4.34
2022-12-19T16:21:50.611Z,4.40
2022-12-19T16:24:53.296Z,4.36
2022-12-19T16:27:56.811Z,4.10
2022-12-19T16:30:59.754Z,4.03
2022-12-19T16:34:02.306Z,3.94
2022-12-19T16:37:03.845Z,3.90
2022-12-19T16:40:06.124Z,3.99
2022-12-19T16:43:15.583Z,3.95
2022-12-19T16:46:23.461Z,3.99
2022-12-19T16:49:25.118Z,3.98
2022-12-19T16:52:26.557Z,4.00
2022-12-19T16:55:28.036Z,3.91
2022-12-19T16:58:29.849Z,3.77
2022-12-19T17:01:31.612Z,3.76
2022-12-19T17:04:33.166Z,3.73
2022-12-19T17:07:35.029Z,3.72
2022-12-19T17:10:36.495Z,3.71
2022-12-19T17:13:38.979Z,3.77
2022-12-19T17:16:40.592Z,3.76
2022-12-19T17:19:45.139Z,3.82
2022-12-19T17:22:47.496Z,3.74
2022-12-19T17:25:49.959Z,3.70
2022-12-19T17:28:51.372Z,3.79
2022-12-19T17:31:52.982Z,3.73
2022-12-19T17:34:54.534Z,3.66
2022-12-19T17:37:57.251Z,3.62
2022-12-19T17:40:59.242Z,3.60
2022-12-19T17:44:00.622Z,3.58
2022-12-19T17:47:02.095Z,3.60
2022-12-19T17:50:03.998Z,3.57
2022-12-19T17:53:09.788Z,3.55
2022-12-19T17:56:16.415Z,3.56
2022-12-19T17:59:18.341Z,3.55
2022-12-19T18:02:23.292Z,3.57
2022-12-19T18:05:29.184Z,3.66
2022-12-19T18:08:32.614Z,3.66
2022-12-19T18:11:41.439Z,3.71
2022-12-19T18:14:43.591Z,3.80
2022-12-19T18:17:47.832Z,3.89
2022-12-19T18:20:49.288Z,4.00
2022-12-19T18:23:50.990Z,3.96
2022-12-19T18:26:52.450Z,4.07
2022-12-19T18:29:53.857Z,4.06
2022-12-19T18:32:58.559Z,4.19
2022-12-19T18:36:00.154Z,4.19
2022-12-19T18:39:01.569Z,4.13
2022-12-19T18:42:18.498Z,4.09
2022-12-19T18:45:23.033Z,4.04
2022-12-19T18:48:26.933Z,4.03
2022-12-19T18:51:28.322Z,4.07
2022-12-19T18:54:29.969Z,4.06
2022-12-19T18:57:31.498Z,4.04
2022-12-19T19:00:33.519Z,4.12
2022-12-19T19:03:38.496Z,4.01
2022-12-19T19:06:46.583Z,4.12
2022-12-19T19:09:52.064Z,4.04
2022-12-19T19:13:11.045Z,4.06
2022-12-19T19:16:18.705Z,4.13
2022-12-19T19:19:20.200Z,3.96
2022-12-19T19:22:21.649Z,3.88
2022-12-19T19:25:23.375Z,3.91
2022-12-19T19:28:24.851Z,3.99
2022-12-19T19:31:29.329Z,3.96
2022-12-19T19:34:35.072Z,3.95
2022-12-19T19:37:37.628Z,4.02
2022-12-19T19:40:39.241Z,4.22
2022-12-19T19:43:41.210Z,4.26
2022-12-19T19:46:42.760Z,4.19
2022-12-19T19:49:44.648Z,4.16
2022-12-19T19:52:46.307Z,4.25
2022-12-19T19:55:57.395Z,4.19
2022-12-19T19:59:00.542Z,4.22
2022-12-19T20:02:02.123Z,4.28
2022-12-19T20:05:03.955Z,4.25
2022-12-19T20:08:05.792Z,4.13
2022-12-19T20:11:08.775Z,4.18
2022-12-19T20:14:10.453Z,4.13
2022-12-19T20:17:11.974Z,4.18
2022-12-19T20:20:13.636Z,4.18
2022-12-19T20:23:15.107Z,4.00
2022-12-19T20:26:17.339Z,3.98
2022-12-19T20:29:18.849Z,4.11
2022-12-19T20:32:20.257Z,4.17
2022-12-19T20:35:21.711Z,4.11
2022-12-19T20:38:23.652Z,4.13
2022-12-19T20:41:25.105Z,4.22
2022-12-19T20:44:26.636Z,4.21
2022-12-19T20:47:28.082Z,4.16
2022-12-19T20:50:29.519Z,4.18
2022-12-19T20:53:32.123Z,4.17
2022-12-19T20:56:33.966Z,4.15
2022-12-19T20:59:35.411Z,4.16
2022-12-19T21:03:16.807Z,4.21
2022-12-19T21:05:58.504Z,4.19
2022-12-19T21:08:59.976Z,4.13
2022-12-19T21:12:01.473Z,4.09
2022-12-19T21:15:03.563Z,4.06
2022-12-19T21:18:05.035Z,4.26
2022-12-19T21:21:08.679Z,4.18
2022-12-19T21:24:10.177Z,4.15
2022-12-19T21:27:11.603Z,4.40
2022-12-19T21:30:13.271Z,4.38
2022-12-19T21:33:14.769Z,4.47
2022-12-19T21:36:21.371Z,4.41
2022-12-19T21:39:25.336Z,4.23
2022-12-19T21:42:26.807Z,4.35
2022-12-19T21:45:28.207Z,4.28
2022-12-19T21:48:29.677Z,4.36
2022-12-19T21:51:32.352Z,4.34
2022-12-19T21:54:33.824Z,4.35
2022-12-19T21:57:42.049Z,4.44
2022-12-19T22:00:43.518Z,4.40
2022-12-19T22:03:45.192Z,4.41
2022-12-19T22:06:47.770Z,4.44
2022-12-19T22:09:49.168Z,4.41
2022-12-19T22:12:50.634Z,4.48
2022-12-19T22:15:52.190Z,4.44
2022-12-19T22:18:54.862Z,4.33
2022-12-19T22:21:56.342Z,4.39
2022-12-19T22:24:57.752Z,4.60
2022-12-19T22:27:59.192Z,4.75
2022-12-19T22:31:01.027Z,4.78
2022-12-19T22:34:08.718Z,4.59
2022-12-19T22:37:10.411Z,4.64
2022-12-19T22:40:13.224Z,4.46
2022-12-19T22:43:14.707Z,4.63
2022-12-19T22:46:19.413Z,4.74
2022-12-19T22:49:20.993Z,4.76
2022-12-19T22:52:23.729Z,4.89
2022-12-19T22:55:25.160Z,4.94
2022-12-19T22:58:28.796Z,4.97
2022-12-19T23:01:34.311Z,5.04
2022-12-19T23:04:36.067Z,5.02
2022-12-19T23:07:37.493Z,5.01
2022-12-19T23:10:38.904Z,5.07
2022-12-19T23:13:41.574Z,5.14
2022-12-19T23:16:43.990Z,5.12
2022-12-19T23:19:45.469Z,5.06
2022-12-19T23:22:46.896Z,4.92
2022-12-19T23:25:49.748Z,4.98
2022-12-19T23:28:57.735Z,4.91
2022-12-19T23:31:59.245Z,4.95
2022-12-19T23:35:00.699Z,4.87
2022-12-19T23:38:02.086Z,5.00
2022-12-19T23:41:06.257Z,5.08
2022-12-19T23:44:08.807Z,5.01
2022-12-19T23:47:10.373Z,5.00
2022-12-19T23:50:12.140Z,5.09
2022-12-19T23:53:13.550Z,5.10
2022-12-19T23:56:20.541Z,5.17
2022-12-19T23:59:22.589Z,5.07
